Date,TemperatureHighF,TemperatureAvgF,TemperatureLowF,DewpointHighF,DewpointAvgF,DewpointLowF,HumidityHigh,HumidityAvg,HumidityLow,PressureMaxIn,PressureMinIn,WindSpeedMaxMPH,WindSpeedAvgMPH,GustSpeedMaxMPH,PrecipitationSumIn
2013-1-1,35.0,34.6,34.0,35.0,34.0,33.0,98,97,93,0.00,40.00,4,2,7,0.00
2013-1-2,35.0,28.1,21.0,23.0,17.6,10.0,91,67,48,0.00,40.00,6,2,9,0.00
2013-1-3,39.0,29.1,19.0,24.0,17.7,12.0,92,65,40,0.00,40.00,15,3,21,0.00
2013-1-4,39.0,33.6,27.0,26.0,22.9,21.0,79,65,50,0.00,40.00,20,5,34,0.00
2013-1-5,45.0,34.5,22.0,28.0,24.1,21.0,95,69,42,0.00,40.00,9,3,16,0.00
2013-1-6,41.0,36.9,29.0,33.0,26.8,21.0,74,67,61,0.00,40.00,16,7,25,0.00
2013-1-7,43.0,31.0,20.0,27.0,22.0,19.0,96,72,44,0.00,40.00,6,2,9,0.00
2013-1-8,55.0,36.9,23.0,32.0,27.1,22.0,95,72,38,0.00,40.00,12,2,21,0.00
2013-1-9,59.0,46.1,34.0,46.0,38.4,30.0,93,76,49,0.00,40.00,12,3,20,0.00
2013-1-10,48.0,42.5,36.0,47.0,39.9,33.0,98,91,64,0.00,40.00,6,3,9,0.00
2013-1-11,67.0,57.6,45.0,58.0,49.0,43.0,98,76,45,0.00,40.00,16,7,34,0.00
2013-1-12,68.0,62.6,54.0,63.0,59.1,49.0,96,88,75,0.00,40.00,16,6,28,0.00
2013-1-13,69.0,52.3,33.0,60.0,49.4,27.0,97,90,66,0.00,40.00,23,9,40,0.00
2013-1-14,33.0,28.2,25.0,27.0,19.7,18.0,81,71,62,0.00,40.00,12,8,21,0.00
2013-1-15,33.0,28.0,22.0,30.0,22.2,19.0,94,80,63,0.00,40.00,12,8,19,0.00
2013-1-16,35.0,32.7,31.0,29.0,27.8,27.0,93,82,72,0.00,40.00,12,3,16,0.00
2013-1-17,46.0,35.9,30.0,29.0,25.0,18.0,89,66,42,0.00,40.00,16,5,24,0.00
2013-1-18,44.0,34.0,23.0,24.0,18.8,14.0,88,56,36,0.00,40.00,12,6,22,0.00
2013-1-19,56.0,46.6,38.0,26.0,24.2,23.0,54,42,29,0.00,40.00,21,11,32,0.00
2013-1-20,49.0,39.0,29.0,32.0,15.9,8.0,60,40,27,0.00,40.00,15,6,24,0.00
2013-1-21,29.0,24.8,16.0,15.0,8.2,0.0,66,50,39,0.00,40.00,20,9,30,0.00
2013-1-22,22.0,15.9,10.0,1.0,-1.2,-5.0,53,47,39,0.00,40.00,12,7,20,0.00
2013-1-23,37.0,25.4,15.0,17.0,8.4,0.0,55,48,41,0.00,40.00,10,3,17,0.00
2013-1-24,32.0,24.8,20.0,18.0,10.0,3.0,60,53,39,0.00,40.00,15,10,33,0.00
2013-6-12,93.0,88.8,85.0,73.0,70.4,68.0,65,55,46,0.00,40.00,14,9,29,0.00
2013-6-13,85.0,79.6,70.0,73.0,63.7,49.0,86,59,41,0.00,40.00,19,10,38,0.00
2013-6-14,85.0,71.7,58.0,61.0,54.8,49.0,88,58,37,0.00,40.00,9,3,14,0.00
2013-6-15,87.0,70.5,61.0,62.0,59.6,55.0,96,73,35,0.00,40.00,7,2,16,0.00
2013-6-16,83.0,74.6,69.0,71.0,66.2,58.0,95,76,50,0.00,40.00,12,3,17,0.00
2013-6-17,92.0,74.1,67.0,70.0,66.2,56.0,96,80,43,0.00,40.00,17,3,34,0.00
2013-6-18,88.0,73.3,65.0,69.0,62.5,52.0,96,73,42,0.00,40.00,21,4,45,0.00
2013-6-19,85.0,73.5,63.0,64.0,59.9,56.0,96,67,39,0.00,40.00,7,4,14,0.00
2013-6-20,89.0,74.0,63.0,65.0,60.5,55.0,95,68,33,0.00,40.00,8,2,14,0.00
2013-6-22,85.0,84.8,84.0,66.0,66.0,66.0,55,54,54,0.00,40.00,6,6,10,0.00
2013-6-25,93.0,88.9,84.0,72.0,68.2,65.0,68,51,40,0.00,40.00,11,6,18,0.00
2013-6-26,87.0,74.6,67.0,73.0,69.0,65.0,96,84,57,0.00,40.00,16,6,34,0.00
2013-6-27,88.0,76.8,70.0,74.0,70.3,67.0,96,82,57,0.00,40.00,12,4,19,0.00
2013-6-28,87.0,80.0,74.0,70.0,61.7,55.0,75,56,35,0.00,40.00,17,8,29,0.00
2013-6-29,82.0,73.9,67.0,67.0,62.3,56.0,96,69,49,0.00,40.00,19,5,28,0.00
2013-6-30,81.0,70.9,66.0,67.0,63.3,58.0,96,80,46,0.00,40.00,12,3,21,0.00
2013-7-1,82.0,68.3,66.0,67.0,64.7,62.0,96,90,54,0.00,40.00,12,4,17,0.00
2013-7-2,83.0,71.0,62.0,69.0,62.4,58.0,97,78,45,0.00,40.00,11,3,16,0.00
2013-7-3,83.0,71.9,64.0,71.0,64.9,58.0,96,81,43,0.00,40.00,9,2,16,0.00
2013-7-4,72.0,70.4,69.0,71.0,69.0,67.0,96,95,92,0.00,40.00,7,3,12,0.00
2013-7-5,81.0,71.7,67.0,71.0,66.8,65.0,96,86,59,0.00,40.00,11,2,14,0.00
2013-7-6,76.0,70.6,67.0,70.0,66.2,63.0,96,87,66,0.00,40.00,9,3,13,0.00
2013-7-7,88.0,75.9,67.0,68.0,64.2,60.0,96,71,42,0.00,40.00,7,3,12,0.00
2013-7-8,90.0,76.1,67.0,70.0,66.6,64.0,96,76,45,0.00,40.00,9,2,14,0.00
2013-7-9,91.0,83.9,77.0,73.0,70.8,68.0,86,66,50,0.00,40.00,11,4,18,0.00
2013-7-10,90.0,77.7,72.0,78.0,67.6,-99.9,91,76,59,0.00,40.00,12,4,18,0.00
2013-7-11,83.0,74.8,69.0,70.0,63.5,56.0,96,72,40,0.00,40.00,15,5,23,0.00
2013-7-12,82.0,71.8,61.0,60.0,56.6,53.0,92,62,37,0.00,40.00,12,5,19,0.00
2013-7-13,85.0,75.6,63.0,66.0,61.8,59.0,91,64,46,0.00,40.00,11,5,23,0.00
2013-7-14,92.0,79.0,68.0,74.0,67.1,64.0,96,71,42,0.00,40.00,24,3,38,0.00
2013-7-15,92.0,79.4,71.0,74.0,69.7,62.0,96,77,39,0.00,40.00,9,2,16,0.00
2013-7-16,94.0,83.3,72.0,75.0,70.2,66.0,96,69,42,0.00,40.00,6,2,11,0.00
2013-7-17,94.0,82.7,74.0,77.0,72.9,68.0,96,75,43,0.00,40.00,10,2,13,0.00
2013-7-18,96.0,84.6,76.0,77.0,72.9,67.0,95,71,42,0.00,40.00,11,2,19,0.00
2013-7-19,91.0,85.0,77.0,77.0,70.8,66.0,87,64,45,0.00,40.00,12,4,19,0.00
2013-7-20,91.0,82.5,76.0,73.0,70.5,66.0,89,68,46,0.00,40.00,14,5,23,0.00
2013-7-21,90.0,79.1,71.0,72.0,67.8,61.0,95,71,43,0.00,40.00,12,3,17,0.00
2013-7-22,83.0,74.9,71.0,76.0,70.9,68.0,96,88,63,0.00,40.00,9,4,24,0.00
2013-7-23,90.0,80.6,73.0,74.0,71.3,68.0,95,75,50,0.00,40.00,9,4,14,0.00
2013-7-24,80.0,71.3,62.0,72.0,59.9,56.0,83,68,48,0.00,40.00,13,7,21,0.00
2013-7-25,80.0,69.1,60.0,62.0,57.4,54.0,92,69,43,0.00,40.00,9,5,13,0.00
2013-7-26,83.0,71.7,60.0,63.0,58.5,54.0,97,68,38,0.00,40.00,9,3,13,0.00
2013-7-27,78.0,71.8,67.0,67.0,60.6,53.0,95,70,46,0.00,40.00,14,5,22,0.00
2013-7-28,76.0,67.1,55.0,54.0,48.9,45.0,91,55,35,0.00,40.00,11,4,16,0.00
2013-7-29,80.0,66.1,56.0,59.0,55.2,51.0,96,72,37,0.00,40.00,10,2,15,0.00
2013-7-30,82.0,67.8,61.0,68.0,61.5,55.0,96,83,41,0.00,40.00,7,2,14,0.00
2013-7-31,77.0,71.0,66.0,69.0,65.7,63.0,96,84,70,0.00,40.00,7,3,14,0.00
2013-8-1,83.0,74.8,68.0,69.0,62.9,54.0,96,70,38,0.00,40.00,11,4,17,0.00
2013-8-2,86.0,74.8,61.0,66.0,59.5,55.0,96,63,38,0.00,40.00,9,3,15,0.00
2013-8-3,86.0,78.4,71.0,71.0,66.5,61.0,92,68,53,0.00,40.00,14,4,22,0.00
2013-8-4,81.0,72.2,63.0,68.0,55.8,49.0,93,59,36,0.00,40.00,11,6,19,0.00
2013-8-5,85.0,69.8,57.0,60.0,55.3,49.0,96,67,31,0.00,40.00,9,2,11,0.00
2013-8-6,86.0,77.9,70.0,73.0,64.9,56.0,88,65,50,0.00,40.00,9,3,11,0.00
2013-8-7,87.0,79.5,74.0,74.0,71.8,69.0,96,78,58,0.00,40.00,8,3,13,0.00
2013-8-8,90.0,81.7,76.0,74.0,71.7,67.0,93,74,47,0.00,40.00,9,4,16,0.00
2013-8-9,86.0,78.8,74.0,75.0,71.9,66.0,96,81,52,0.00,40.00,11,4,16,0.00
2013-8-10,77.0,75.7,75.0,74.0,73.2,73.0,94,92,86,0.00,40.00,2,1,4,0.00